Fountain, Michigan
Current Conditions -  °F | °C
As of 5:55 PM on Tuesday 27 Jan 2015 (Local Time) from KLDM Reporting Station
Clear Clear  
Wind Chill: 16°   Ceiling: Unl
Heat Index: 23°   Visibility: 7mi
Dew Point: 13°   Wind: 6mph
Humidity: 65%   Direction: 350°N
Pressure: 30.23"   Gusts: NA
Location:  44.05°N, 86.18°W
Report Text: KLDM 272255Z AUTO 35005KT 7SM CLR M05/M11 A3023 RMK AO2 T10491106
Loading
Personal Weather Stations






























Interactive Weather Map New forecast layout! Learn more

10-Day Weather Forecast

Advertisements
Track Severe Weather on mobile